Time;durP1;ratioP1;P1;durP2;ratioP2;P2;SDS_P1;SDS_P2;PMS_P1;PMS_P2;Temp;Humidity;BMP_temperature;BMP_pressure;BME280_temperature;BME280_humidity;BME280_pressure;Samples;Min_cycle;Max_cycle;Signal;HPM_P1;HPM_P2
2022/10/13 00:00:48;;;;;;;;;;;;;;;15.86;100.00;99376.25;5059746;28;19974;-44
2022/10/13 00:03:14;;;;;;;;;;;;;;;15.84;100.00;99366.84;5060874;28;21168;-44
2022/10/13 00:05:42;;;;;;;;;;;;;;;15.30;100.00;99374.50;5060213;28;21787;-44
2022/10/13 00:08:08;;;;;;;;;;;;;;;15.68;100.00;99372.72;5041893;28;19920;-44
2022/10/13 00:10:35;;;;;;;;;;;;;;;15.66;100.00;99373.72;5059330;28;19916;-44
2022/10/13 00:13:00;;;;;;;;;;;;;;;15.63;100.00;99374.72;5042744;28;19926;-44
2022/10/13 00:15:25;;;;;;;;;;;;;;;15.79;100.00;99374.88;5059592;28;20352;-45
2022/10/13 00:17:51;;;;;;;;;;;;;;;15.41;100.00;99367.06;5059896;28;20379;-44
2022/10/13 00:20:16;;;;;;;;;;;;;;;15.25;100.00;99373.88;5059661;28;19928;-44
2022/10/13 00:22:41;;;;;;;;;;;;;;;14.92;100.00;99373.63;5060197;28;19924;-44
2022/10/13 00:25:07;;;;;;;;;;;;;;;15.28;100.00;99376.34;5060105;28;20691;-44
2022/10/13 00:27:32;;;;;;;;;;;;;;;15.39;100.00;99384.47;5060542;28;19920;-45
2022/10/13 00:29:57;;;;;;;;;;;;;;;15.43;100.00;99383.41;5057514;28;20356;-44
2022/10/13 00:32:22;;;;;;;;;;;;;;;15.64;100.00;99385.94;5060494;28;20376;-44
2022/10/13 00:34:48;;;;;;;;;;;;;;;15.51;100.00;99384.81;5059682;28;19994;-44
2022/10/13 00:37:13;;;;;;;;;;;;;;;15.92;100.00;99380.31;5059255;28;20547;-44
2022/10/13 00:39:38;;;;;;;;;;;;;;;15.75;100.00;99375.09;5059078;28;20003;-44
2022/10/13 00:42:04;;;;;;;;;;;;;;;15.63;100.00;99379.06;5057459;28;20011;-44
2022/10/13 00:44:49;;;;;;;;;;;;;;;15.14;100.00;99378.69;5042306;28;20090;-44
2022/10/13 00:47:14;;;;;;;;;;;;;;;15.11;100.00;99381.44;5058860;28;20455;-44
2022/10/13 00:49:39;;;;;;;;;;;;;;;15.19;100.00;99385.38;5059339;28;19917;-45
2022/10/13 00:52:05;;;;;;;;;;;;;;;15.34;100.00;99376.06;5058813;28;19927;-45
2022/10/13 00:54:30;;;;;;;;;;;;;;;15.58;100.00;99373.25;5042420;28;19920;-44
2022/10/13 00:56:55;;;;;;;;;;;;;;;15.43;100.00;99373.03;5058421;28;19931;-44
2022/10/13 00:59:22;;;;;;;;;;;;;;;15.53;100.00;99363.09;5058908;28;19920;-44
2022/10/13 01:01:48;;;;;;;;;;;;;;;15.39;100.00;99368.88;5042018;28;19924;-44
2022/10/13 01:04:14;;;;;;;;;;;;;;;15.45;100.00;99362.59;5041417;28;19981;-44
2022/10/13 01:06:39;;;;;;;;;;;;;;;15.28;100.00;99368.56;5041223;28;19924;-44
2022/10/13 01:09:04;;;;;;;;;;;;;;;15.46;100.00;99356.47;5040663;28;19923;-44
2022/10/13 01:11:32;;;;;;;;;;;;;;;15.37;100.00;99357.75;5058215;28;19936;-44
2022/10/13 01:14:13;;;;;;;;;;;;;;;15.48;100.00;99355.47;5059775;28;19924;-44
2022/10/13 01:16:57;;;;;;;;;;;;;;;15.53;100.00;99355.31;5041523;28;20381;-44
2022/10/13 01:19:52;;;;;;;;;;;;;;;15.26;100.00;99360.84;5040725;28;19916;-44
2022/10/13 01:22:17;;;;;;;;;;;;;;;14.96;100.00;99357.00;4988121;28;19925;-44
2022/10/13 01:24:43;;;;;;;;;;;;;;;15.08;100.00;99350.47;5059063;28;19924;-44
2022/10/13 01:27:23;;;;;;;;;;;;;;;15.54;100.00;99343.16;5041880;28;20446;-44
2022/10/13 01:29:57;;;;;;;;;;;;;;;15.31;100.00;99345.06;5041251;28;20003;-44
2022/10/13 01:32:28;;;;;;;;;;;;;;;15.14;100.00;99351.00;5062812;28;19963;-44
2022/10/13 01:34:56;;;;;;;;;;;;;;;15.38;100.00;99349.06;5062818;28;19928;-45
2022/10/13 01:37:21;;;;;;;;;;;;;;;15.47;100.00;99333.06;5061864;28;19921;-45
2022/10/13 01:40:10;;;;;;;;;;;;;;;15.22;100.00;99337.69;5061765;28;20944;-44
2022/10/13 01:42:41;;;;;;;;;;;;;;;15.14;100.00;99339.78;5051147;28;20578;-44
2022/10/13 01:45:06;;;;;;;;;;;;;;;15.44;100.00;99325.41;5043791;28;20107;-44
2022/10/13 01:47:32;;;;;;;;;;;;;;;15.31;100.00;99326.91;5062454;28;20035;-44
2022/10/13 01:49:58;;;;;;;;;;;;;;;15.49;100.00;99317.41;5043603;28;19985;-45
2022/10/13 01:52:24;;;;;;;;;;;;;;;14.92;100.00;99324.38;5026897;28;19924;-44
2022/10/13 01:54:49;;;;;;;;;;;;;;;15.15;100.00;99321.56;5044872;28;19916;-44
2022/10/13 01:57:31;;;;;;;;;;;;;;;15.34;100.00;99316.38;5062710;28;19924;-44
2022/10/13 01:59:58;;;;;;;;;;;;;;;15.11;100.00;99301.88;5061881;28;19916;-44
2022/10/13 02:02:25;;;;;;;;;;;;;;;15.01;100.00;99303.22;5044225;28;20521;-44
2022/10/13 02:04:54;;;;;;;;;;;;;;;15.41;100.00;99298.75;5044437;28;20241;-44
2022/10/13 02:07:19;;;;;;;;;;;;;;;15.82;100.00;99295.97;5062028;28;19920;-44
2022/10/13 02:09:56;;;;;;;;;;;;;;;16.01;100.00;99291.56;5061499;28;20055;-44
2022/10/13 02:12:36;;;;;;;;;;;;;;;16.05;100.00;99276.66;5044040;28;20672;-44
2022/10/13 02:15:01;;;;;;;;;;;;;;;16.12;100.00;99272.81;5043905;28;19920;-44
2022/10/13 02:17:27;;;;;;;;;;;;;;;15.40;100.00;99274.56;5027858;28;19924;-43
2022/10/13 02:19:52;;;;;;;;;;;;;;;15.61;100.00;99277.88;5061217;28;19920;-44
2022/10/13 02:22:17;;;;;;;;;;;;;;;16.19;100.00;99274.19;5043374;28;19931;-44
2022/10/13 02:24:42;;;;;;;;;;;;;;;16.28;100.00;99265.94;5044768;28;20409;-44
2022/10/13 02:27:08;;;;;;;;;;;;;;;16.12;100.00;99262.41;5062263;28;20550;-44
2022/10/13 02:29:33;;;;;;;;;;;;;;;16.21;100.00;99261.13;5060091;28;19912;-44
2022/10/13 02:31:59;;;;;;;;;;;;;;;15.97;100.00;99263.22;5061516;28;19916;-44
2022/10/13 02:34:24;;;;;;;;;;;;;;;15.86;100.00;99255.94;5061959;28;19921;-44
2022/10/13 02:36:49;;;;;;;;;;;;;;;16.11;100.00;99260.75;5061952;28;19924;-44
2022/10/13 02:39:14;;;;;;;;;;;;;;;16.04;100.00;99260.22;5030287;28;19924;-44
2022/10/13 02:41:40;;;;;;;;;;;;;;;16.22;100.00;99258.44;5061787;28;19987;-44
2022/10/13 02:44:05;;;;;;;;;;;;;;;16.08;100.00;99255.72;5061320;28;19927;-44
2022/10/13 02:46:30;;;;;;;;;;;;;;;16.15;100.00;99262.28;5060135;28;19924;-45
2022/10/13 02:48:56;;;;;;;;;;;;;;;15.71;100.00;99257.53;5061578;28;19916;-44
2022/10/13 02:51:21;;;;;;;;;;;;;;;15.99;100.00;99262.22;5061537;28;20392;-44
2022/10/13 02:53:46;;;;;;;;;;;;;;;15.86;100.00;99266.34;5060404;28;20002;-44
2022/10/13 02:56:11;;;;;;;;;;;;;;;15.65;100.00;99257.81;5061309;28;19995;-44
2022/10/13 02:58:37;;;;;;;;;;;;;;;15.79;100.00;99263.19;5043226;28;19956;-44
2022/10/13 03:01:09;;;;;;;;;;;;;;;15.73;100.00;99260.06;5060614;28;19990;-44
2022/10/13 03:03:35;;;;;;;;;;;;;;;16.16;100.00;99263.94;5043133;28;19921;-44
2022/10/13 03:06:00;;;;;;;;;;;;;;;15.91;100.00;99259.16;5061562;28;19942;-44
2022/10/13 03:08:25;;;;;;;;;;;;;;;15.84;100.00;99257.78;5060530;28;19986;-46
2022/10/13 03:10:51;;;;;;;;;;;;;;;16.10;100.00;99259.06;5060746;28;19966;-44
2022/10/13 03:13:16;;;;;;;;;;;;;;;16.19;100.00;99256.00;5061238;28;19924;-44
2022/10/13 03:15:41;;;;;;;;;;;;;;;16.24;100.00;99255.78;5061416;28;20407;-44
2022/10/13 03:18:06;;;;;;;;;;;;;;;16.27;100.00;99266.84;5060321;28;19920;-44
2022/10/13 03:20:32;;;;;;;;;;;;;;;16.05;100.00;99269.69;5060400;28;19974;-44
2022/10/13 03:22:57;;;;;;;;;;;;;;;16.30;100.00;99269.28;5029375;28;20403;-44
2022/10/13 03:25:22;;;;;;;;;;;;;;;16.05;100.00;99266.25;5060847;28;20405;-44
2022/10/13 03:27:47;;;;;;;;;;;;;;;16.03;100.00;99278.47;5061123;28;20492;-44
2022/10/13 03:30:12;;;;;;;;;;;;;;;16.20;100.00;99269.84;5058346;28;21248;-44
2022/10/13 03:32:39;;;;;;;;;;;;;;;15.85;100.00;99270.69;5060453;28;20323;-44
2022/10/13 03:35:05;;;;;;;;;;;;;;;16.00;100.00;99268.25;5060675;28;20695;-44
2022/10/13 03:37:30;;;;;;;;;;;;;;;16.02;100.00;99267.25;5060817;28;19982;-44
2022/10/13 03:39:55;;;;;;;;;;;;;;;16.02;100.00;99271.63;5059664;28;19916;-44
2022/10/13 03:42:21;;;;;;;;;;;;;;;15.99;100.00;99261.38;5060279;28;19920;-44
2022/10/13 03:44:46;;;;;;;;;;;;;;;16.11;100.00;99260.75;5060436;28;20007;-44
2022/10/13 03:47:12;;;;;;;;;;;;;;;16.10;100.00;99264.25;5058178;28;19974;-44
2022/10/13 03:49:37;;;;;;;;;;;;;;;16.05;100.00;99261.06;5059279;28;20430;-44
2022/10/13 03:52:03;;;;;;;;;;;;;;;15.88;100.00;99259.31;5059091;28;20389;-44
2022/10/13 03:54:28;;;;;;;;;;;;;;;16.00;100.00;99256.09;5059709;28;19920;-44
2022/10/13 03:56:54;;;;;;;;;;;;;;;15.73;100.00;99257.47;5060400;28;20019;-45
2022/10/13 03:59:19;;;;;;;;;;;;;;;15.81;100.00;99258.78;5059362;28;19955;-46
2022/10/13 04:01:44;;;;;;;;;;;;;;;15.89;100.00;99254.03;5059547;28;19950;-44
2022/10/13 04:04:11;;;;;;;;;;;;;;;15.83;100.00;99245.72;5059947;28;19931;-44
2022/10/13 04:06:36;;;;;;;;;;;;;;;16.00;100.00;99248.28;5041952;28;19916;-44
2022/10/13 04:09:01;;;;;;;;;;;;;;;16.09;100.00;99252.19;5041042;28;19920;-44
2022/10/13 04:11:26;;;;;;;;;;;;;;;15.66;100.00;99247.34;5059599;28;19931;-46
2022/10/13 04:13:52;;;;;;;;;;;;;;;15.95;100.00;99254.66;5058477;28;19966;-44
2022/10/13 04:16:22;;;;;;;;;;;;;;;15.65;100.00;99252.63;5058842;28;19928;-45
2022/10/13 04:18:51;;;;;;;;;;;;;;;15.94;100.00;99248.59;5058836;28;19970;-44
2022/10/13 04:21:17;;;;;;;;;;;;;;;16.02;100.00;99250.81;5041584;28;20393;-44
2022/10/13 04:23:42;;;;;;;;;;;;;;;16.06;100.00;99252.38;5060202;28;19930;-44
2022/10/13 04:26:13;;;;;;;;;;;;;;;15.93;100.00;99246.09;5059605;28;19921;-44
2022/10/13 04:28:38;;;;;;;;;;;;;;;16.11;100.00;99239.97;5057592;28;20304;-44
2022/10/13 04:31:03;;;;;;;;;;;;;;;16.22;100.00;99242.88;5057758;28;19920;-45
2022/10/13 04:33:29;;;;;;;;;;;;;;;15.85;100.00;99243.88;5024473;28;20364;-45
2022/10/13 04:35:54;;;;;;;;;;;;;;;15.82;100.00;99244.84;5058916;28;20032;-44
2022/10/13 04:38:19;;;;;;;;;;;;;;;16.00;100.00;99237.06;5059183;28;19917;-44
2022/10/13 04:40:44;;;;;;;;;;;;;;;15.94;100.00;99245.16;5059070;28;19959;-44
2022/10/13 04:43:09;;;;;;;;;;;;;;;16.26;100.00;99231.41;5059900;28;19962;-44
2022/10/13 04:45:35;;;;;;;;;;;;;;;16.24;100.00;99225.44;5057232;28;19981;-45
2022/10/13 04:48:00;;;;;;;;;;;;;;;16.12;100.00;99223.44;5026467;28;19970;-44
2022/10/13 04:50:25;;;;;;;;;;;;;;;16.19;100.00;99219.63;5058393;28;19921;-44
2022/10/13 04:52:50;;;;;;;;;;;;;;;15.83;100.00;99223.19;5060063;28;19920;-44
2022/10/13 04:55:16;;;;;;;;;;;;;;;15.66;100.00;99217.94;5041082;28;19967;-44
2022/10/13 04:57:41;;;;;;;;;;;;;;;15.54;100.00;99223.75;5059966;28;19959;-44
2022/10/13 05:00:07;;;;;;;;;;;;;;;15.33;100.00;99223.88;5058457;28;20085;-44
2022/10/13 05:02:34;;;;;;;;;;;;;;;15.21;100.00;99224.44;5059611;28;20009;-44
2022/10/13 05:04:59;;;;;;;;;;;;;;;15.55;100.00;99212.44;5041284;28;19913;-44
2022/10/13 05:07:24;;;;;;;;;;;;;;;15.89;100.00;99217.66;5055924;28;20392;-45
2022/10/13 05:09:49;;;;;;;;;;;;;;;15.55;100.00;99213.28;5058453;28;20305;-44
2022/10/13 05:12:15;;;;;;;;;;;;;;;15.72;100.00;99211.66;5059931;28;20285;-45
2022/10/13 05:14:40;;;;;;;;;;;;;;;15.73;100.00;99205.53;5059684;28;19920;-44
2022/10/13 05:17:05;;;;;;;;;;;;;;;15.28;100.00;99205.09;5059546;28;20703;-44
2022/10/13 05:19:31;;;;;;;;;;;;;;;15.32;100.00;99209.19;5059312;28;20172;-44
2022/10/13 05:21:56;;;;;;;;;;;;;;;15.77;100.00;99199.28;5059580;28;20081;-44
2022/10/13 05:24:29;;;;;;;;;;;;;;;14.90;100.00;99218.09;5058398;28;19963;-45
2022/10/13 05:26:55;;;;;;;;;;;;;;;15.52;100.00;99215.19;5059502;28;19931;-44
2022/10/13 05:29:20;;;;;;;;;;;;;;;15.91;100.00;99206.38;5057857;28;19921;-45
2022/10/13 05:31:45;;;;;;;;;;;;;;;15.43;100.00;99206.09;5059443;28;19928;-44
2022/10/13 05:34:11;;;;;;;;;;;;;;;15.24;100.00;99211.34;5059229;28;19920;-45
2022/10/13 05:36:36;;;;;;;;;;;;;;;15.40;100.00;99216.63;5059871;28;20449;-44
2022/10/13 05:39:02;;;;;;;;;;;;;;;15.50;100.00;99214.44;5058333;28;19920;-44
2022/10/13 05:41:28;;;;;;;;;;;;;;;15.34;100.00;99211.72;5059863;28;19928;-44
2022/10/13 05:43:56;;;;;;;;;;;;;;;15.44;100.00;99218.13;5059015;28;19917;-44
2022/10/13 05:46:21;;;;;;;;;;;;;;;15.38;100.00;99215.88;5058070;28;19970;-44
2022/10/13 05:48:46;;;;;;;;;;;;;;;14.88;100.00;99214.75;5026087;28;19925;-45
2022/10/13 05:51:18;;;;;;;;;;;;;;;14.66;100.00;99219.22;5040279;28;20474;-44
2022/10/13 05:53:44;;;;;;;;;;;;;;;15.15;100.00;99224.75;5040911;28;19940;-44
2022/10/13 05:56:12;;;;;;;;;;;;;;;15.25;100.00;99228.56;5041251;28;19928;-44
2022/10/13 05:58:43;;;;;;;;;;;;;;;14.98;100.00;99223.75;5040665;28;19931;-44
2022/10/13 06:01:09;;;;;;;;;;;;;;;15.29;100.00;99227.53;5040970;28;19916;-44
2022/10/13 06:03:34;;;;;;;;;;;;;;;14.85;100.00;99226.09;5041465;28;19920;-45
2022/10/13 06:06:00;;;;;;;;;;;;;;;15.21;100.00;99224.44;5040726;28;20657;-44
2022/10/13 06:08:25;;;;;;;;;;;;;;;15.23;100.00;99226.03;5039710;28;20460;-44
2022/10/13 06:10:50;;;;;;;;;;;;;;;15.55;100.00;99209.84;5058257;28;19920;-45
2022/10/13 06:13:16;;;;;;;;;;;;;;;15.73;100.00;99213.31;5041451;28;20000;-44
2022/10/13 06:15:41;;;;;;;;;;;;;;;15.40;100.00;99201.91;5060762;28;19932;-45
2022/10/13 06:18:07;;;;;;;;;;;;;;;15.24;100.00;99200.97;5062207;28;20165;-45
2022/10/13 06:20:33;;;;;;;;;;;;;;;15.43;100.00;99201.75;5042483;28;19924;-44
2022/10/13 06:22:58;;;;;;;;;;;;;;;14.47;100.00;99204.47;5062263;28;20053;-45
2022/10/13 06:25:23;;;;;;;;;;;;;;;15.35;100.00;99211.66;5062186;28;19921;-45
2022/10/13 06:27:48;;;;;;;;;;;;;;;15.17;100.00;99209.97;5062553;28;19920;-44
2022/10/13 06:30:14;;;;;;;;;;;;;;;15.33;100.00;99200.53;5059998;28;20596;-44
2022/10/13 06:32:39;;;;;;;;;;;;;;;15.02;100.00;99196.78;5030787;28;19956;-44
2022/10/13 06:35:05;;;;;;;;;;;;;;;14.97;100.00;99209.13;5060996;28;20839;-45
2022/10/13 06:37:30;;;;;;;;;;;;;;;15.33;100.00;99204.88;5062326;28;19956;-45
2022/10/13 06:39:55;;;;;;;;;;;;;;;15.14;100.00;99186.72;5061471;28;19978;-45
2022/10/13 06:42:20;;;;;;;;;;;;;;;14.64;100.00;99188.19;5062261;28;19916;-44
2022/10/13 06:44:46;;;;;;;;;;;;;;;15.42;100.00;99200.06;5062774;28;19917;-45
2022/10/13 06:47:11;;;;;;;;;;;;;;;15.77;100.00;99200.09;5059058;28;19932;-44
2022/10/13 06:49:36;;;;;;;;;;;;;;;15.77;100.00;99197.50;5061075;28;20396;-44
2022/10/13 06:52:02;;;;;;;;;;;;;;;15.44;100.00;99192.19;5062239;28;19939;-44
2022/10/13 06:54:27;;;;;;;;;;;;;;;15.77;100.00;99204.47;5062236;28;19916;-44
2022/10/13 06:56:52;;;;;;;;;;;;;;;15.97;100.00;99200.88;5061581;28;19977;-44
2022/10/13 06:59:18;;;;;;;;;;;;;;;15.62;100.00;99190.44;5060847;28;19916;-45
2022/10/13 07:01:43;;;;;;;;;;;;;;;15.36;100.00;99200.34;5061373;28;19955;-46
2022/10/13 07:04:08;;;;;;;;;;;;;;;14.53;100.00;99178.28;5061371;28;19921;-44
2022/10/13 07:06:33;;;;;;;;;;;;;;;15.23;100.00;99183.69;5060647;28;20340;-45
2022/10/13 07:09:01;;;;;;;;;;;;;;;15.09;100.00;99171.38;5061086;28;20015;-45
2022/10/13 07:11:27;;;;;;;;;;;;;;;15.30;100.00;99164.31;5061399;28;19921;-45
2022/10/13 07:13:52;;;;;;;;;;;;;;;15.53;100.00;99180.53;5061314;28;19931;-45
2022/10/13 07:16:18;;;;;;;;;;;;;;;14.85;100.00;99174.25;5042908;28;19928;-44
2022/10/13 07:18:43;;;;;;;;;;;;;;;15.85;100.00;99177.22;5059311;28;20011;-44
2022/10/13 07:21:08;;;;;;;;;;;;;;;15.95;100.00;99163.75;5042294;28;20072;-45
2022/10/13 07:23:33;;;;;;;;;;;;;;;16.05;100.00;99183.94;5060421;28;19925;-45
2022/10/13 07:25:59;;;;;;;;;;;;;;;16.03;100.00;99178.03;5060025;28;20412;-44
2022/10/13 07:28:25;;;;;;;;;;;;;;;16.46;100.00;99161.91;5059740;28;19990;-44
2022/10/13 07:30:50;;;;;;;;;;;;;;;16.17;100.00;99173.84;5059746;28;20393;-44
2022/10/13 07:33:16;;;;;;;;;;;;;;;15.86;100.00;99163.28;5060375;28;19917;-44
2022/10/13 07:35:41;;;;;;;;;;;;;;;16.13;100.00;99154.16;5060863;28;20626;-44
2022/10/13 07:38:07;;;;;;;;;;;;;;;16.10;100.00;99155.13;5060626;28;20478;-45
2022/10/13 07:40:32;;;;;;;;;;;;;;;16.53;100.00;99165.84;5060804;28;19920;-44
2022/10/13 07:42:57;;;;;;;;;;;;;;;15.58;100.00;99158.63;5061483;28;20035;-45
2022/10/13 07:45:22;;;;;;;;;;;;;;;15.93;100.00;99162.97;5057748;28;20067;-44
2022/10/13 07:47:48;;;;;;;;;;;;;;;16.40;100.00;99172.63;5060606;28;19978;-46
2022/10/13 07:50:13;;;;;;;;;;;;;;;16.44;100.00;99167.19;5059260;28;19974;-44
2022/10/13 07:52:38;;;;;;;;;;;;;;;16.69;100.00;99169.34;5060919;28;19920;-45
2022/10/13 07:55:04;;;;;;;;;;;;;;;17.11;100.00;99154.88;5060265;28;20366;-44
2022/10/13 07:57:29;;;;;;;;;;;;;;;17.27;100.00;99154.03;5059927;28;20300;-44
2022/10/13 07:59:54;;;;;;;;;;;;;;;17.25;100.00;99155.88;5058872;28;19920;-45
2022/10/13 08:02:19;;;;;;;;;;;;;;;17.57;100.00;99159.22;5027774;28;20445;-44
2022/10/13 08:04:45;;;;;;;;;;;;;;;17.69;100.00;99149.84;5060525;28;19920;-45
2022/10/13 08:07:10;;;;;;;;;;;;;;;17.29;100.00;99152.19;5060524;28;19917;-44
2022/10/13 08:09:35;;;;;;;;;;;;;;;17.71;100.00;99150.59;5059578;28;19980;-45
2022/10/13 08:12:00;;;;;;;;;;;;;;;18.39;100.00;99145.63;5060413;28;20018;-44
2022/10/13 08:14:26;;;;;;;;;;;;;;;18.46;100.00;99137.44;5060871;28;19916;-44
2022/10/13 08:16:51;;;;;;;;;;;;;;;18.69;100.00;99136.81;5060557;28;19925;-44
2022/10/13 08:19:16;;;;;;;;;;;;;;;18.01;100.00;99149.72;5042256;28;19981;-45
2022/10/13 08:21:42;;;;;;;;;;;;;;;17.84;100.00;99143.78;5059320;28;19928;-45
2022/10/13 08:24:11;;;;;;;;;;;;;;;18.11;100.00;99151.69;5060920;28;19927;-46
2022/10/13 08:26:36;;;;;;;;;;;;;;;18.39;100.00;99145.63;5060230;28;20019;-45
2022/10/13 08:29:02;;;;;;;;;;;;;;;18.31;100.00;99142.63;5057795;28;19920;-46
2022/10/13 08:31:27;;;;;;;;;;;;;;;18.53;100.00;99149.16;5060186;28;19925;-46
2022/10/13 08:33:52;;;;;;;;;;;;;;;18.80;100.00;99150.06;5059864;28;19923;-47
2022/10/13 08:36:18;;;;;;;;;;;;;;;18.69;100.00;99156.84;5060442;28;19925;-47
2022/10/13 08:38:43;;;;;;;;;;;;;;;18.79;100.00;99150.13;5059751;28;19912;-45
2022/10/13 08:41:32;;;;;;;;;;;;;;;19.07;100.00;99150.97;5041696;28;19931;-46
2022/10/13 08:44:03;;;;;;;;;;;;;;;19.14;100.00;99152.28;5048657;28;19921;-45
2022/10/13 08:46:31;;;;;;;;;;;;;;;19.38;100.00;99136.75;5040652;28;20003;-45
2022/10/13 08:48:56;;;;;;;;;;;;;;;19.55;100.00;99146.94;5041688;28;20292;-45
2022/10/13 08:51:21;;;;;;;;;;;;;;;19.22;100.00;99142.97;5059972;28;19920;-46
2022/10/13 08:53:47;;;;;;;;;;;;;;;19.20;100.00;99147.50;5059631;28;19924;-46
2022/10/13 08:56:21;;;;;;;;;;;;;;;19.15;100.00;99144.31;5059538;28;19924;-45
2022/10/13 08:58:47;;;;;;;;;;;;;;;19.52;100.00;99141.91;5059318;28;19916;-46
2022/10/13 09:01:14;;;;;;;;;;;;;;;18.96;100.00;99143.84;5059385;28;19948;-45
2022/10/13 09:03:55;;;;;;;;;;;;;;;18.94;100.00;99138.72;5060082;28;19974;-47
2022/10/13 09:06:27;;;;;;;;;;;;;;;18.77;100.00;99142.44;5059540;28;19978;-45
2022/10/13 09:09:12;;;;;;;;;;;;;;;18.86;100.00;99147.97;5059758;28;19913;-46
2022/10/13 09:11:38;;;;;;;;;;;;;;;19.25;100.00;99148.94;5059188;28;19987;-45
2022/10/13 09:14:04;;;;;;;;;;;;;;;19.12;100.00;99154.16;5059970;28;20462;-45
2022/10/13 09:16:37;;;;;;;;;;;;;;;18.73;100.00;99159.16;5059247;28;19925;-46
2022/10/13 09:19:17;;;;;;;;;;;;;;;19.07;100.00;99145.75;5059057;28;19916;-45
2022/10/13 09:21:43;;;;;;;;;;;;;;;19.29;100.00;99135.59;5059833;28;19924;-46
2022/10/13 09:24:11;;;;;;;;;;;;;;;18.49;100.00;99137.22;5040747;28;19917;-47
2022/10/13 09:26:37;;;;;;;;;;;;;;;19.14;100.00;99142.66;5041612;28;19962;-46
2022/10/13 09:29:09;;;;;;;;;;;;;;;19.68;100.00;99140.88;5039671;28;19917;-45
2022/10/13 09:31:36;;;;;;;;;;;;;;;19.77;100.00;99135.06;5059777;28;19916;-48
2022/10/13 09:34:05;;;;;;;;;;;;;;;20.14;100.00;99143.84;5025396;28;19974;-46
2022/10/13 09:36:30;;;;;;;;;;;;;;;20.03;100.00;99136.75;5024419;28;19981;-45
2022/10/13 09:39:04;;;;;;;;;;;;;;;20.28;100.00;99129.81;5058617;28;20374;-47
2022/10/13 09:41:30;;;;;;;;;;;;;;;20.51;100.00;99129.97;5058795;28;19916;-46
2022/10/13 09:43:55;;;;;;;;;;;;;;;20.91;100.00;99122.72;5059802;28;19912;-46
2022/10/13 09:46:20;;;;;;;;;;;;;;;20.62;100.00;99117.81;5056927;28;19916;-46
2022/10/13 09:48:50;;;;;;;;;;;;;;;20.68;100.00;99121.78;5058547;28;20411;-47
2022/10/13 09:51:28;;;;;;;;;;;;;;;21.12;100.00;99109.00;5061905;28;19913;-46
2022/10/13 09:53:53;;;;;;;;;;;;;;;20.61;100.00;99110.06;5045382;28;19916;-46
2022/10/13 09:56:20;;;;;;;;;;;;;;;21.24;100.00;99105.50;5044610;28;20524;-47
2022/10/13 09:58:47;;;;;;;;;;;;;;;21.70;100.00;99110.75;5043172;28;19920;-46
2022/10/13 10:01:16;;;;;;;;;;;;;;;21.95;100.00;99097.56;5044216;28;19955;-46
2022/10/13 10:03:41;;;;;;;;;;;;;;;21.13;100.00;99100.22;5044358;28;19916;-46
2022/10/13 10:06:07;;;;;;;;;;;;;;;20.84;100.00;99104.00;5044084;28;19932;-47
2022/10/13 10:08:40;;;;;;;;;;;;;;;21.52;100.00;99101.66;5044552;28;19919;-46
2022/10/13 10:11:12;;;;;;;;;;;;;;;21.98;100.00;99102.53;5061357;28;19920;-46
2022/10/13 10:13:37;;;;;;;;;;;;;;;21.30;100.00;99108.50;5062195;28;19926;-46
2022/10/13 10:16:05;;;;;;;;;;;;;;;21.87;100.00;99096.34;5062639;28;19921;-46
2022/10/13 10:18:51;;;;;;;;;;;;;;;21.49;100.00;99087.00;5044429;28;20003;-48
2022/10/13 10:21:35;;;;;;;;;;;;;;;21.78;100.00;99090.97;5044701;28;20328;-47
2022/10/13 10:24:11;;;;;;;;;;;;;;;22.36;100.00;99085.63;5062923;28;19920;-47
2022/10/13 10:26:39;;;;;;;;;;;;;;;21.85;100.00;99081.66;5063186;28;19916;-46
2022/10/13 10:29:13;;;;;;;;;;;;;;;21.72;100.00;99087.03;5059763;28;19947;-48
2022/10/13 10:32:03;;;;;;;;;;;;;;;23.08;100.00;99071.91;5062263;28;20031;-45
2022/10/13 10:34:31;;;;;;;;;;;;;;;22.57;100.00;99077.81;5044556;28;19920;-46
2022/10/13 10:37:13;;;;;;;;;;;;;;;22.87;100.00;99069.25;5062226;28;20343;-46
2022/10/13 10:39:58;;;;;;;;;;;;;;;22.29;100.00;99077.41;5043774;28;19955;-45
2022/10/13 10:42:31;;;;;;;;;;;;;;;22.70;100.00;99089.00;5062280;28;20451;-46
2022/10/13 10:44:57;;;;;;;;;;;;;;;22.62;100.00;99071.22;5062188;28;19985;-46
2022/10/13 10:47:35;;;;;;;;;;;;;;;22.05;100.00;99067.84;5025767;28;19924;-46
2022/10/13 10:50:02;;;;;;;;;;;;;;;22.64;100.00;99073.75;5043193;28;19995;-46
2022/10/13 10:52:29;;;;;;;;;;;;;;;22.80;100.00;99066.28;5061577;28;20420;-46
2022/10/13 10:55:01;;;;;;;;;;;;;;;23.04;100.00;99057.41;5044379;28;19927;-46
2022/10/13 10:57:28;;;;;;;;;;;;;;;23.09;100.00;99057.84;5043477;28;20542;-47
2022/10/13 11:00:03;;;;;;;;;;;;;;;23.71;100.00;99043.81;5044018;28;19951;-46
2022/10/13 11:02:47;;;;;;;;;;;;;;;23.52;100.00;99043.72;5061857;28;19920;-47
2022/10/13 11:05:13;;;;;;;;;;;;;;;23.48;100.00;99042.31;5062338;28;20296;-46
2022/10/13 11:07:38;;;;;;;;;;;;;;;23.70;100.00;99036.06;5062249;28;19916;-46
2022/10/13 11:10:25;;;;;;;;;;;;;;;23.73;100.00;99031.34;5061542;28;20850;-45
2022/10/13 11:12:50;;;;;;;;;;;;;;;24.15;100.00;99026.00;5061766;28;19985;-47
2022/10/13 11:15:25;;;;;;;;;;;;;;;24.23;100.00;99017.44;5061221;28;19917;-46
2022/10/13 11:17:51;;;;;;;;;;;;;;;24.38;100.00;99018.69;5043796;28;20702;-46
2022/10/13 11:20:16;;;;;;;;;;;;;;;23.70;100.00;99025.56;5060215;28;19923;-45
2022/10/13 11:22:42;;;;;;;;;;;;;;;24.08;100.00;99016.97;5061772;28;20489;-46
2022/10/13 11:25:20;;;;;;;;;;;;;;;23.67;100.00;99021.34;5043730;28;19924;-45
2022/10/13 11:27:45;;;;;;;;;;;;;;;23.97;100.00;99019.69;5061374;28;19947;-46
2022/10/13 11:30:29;;;;;;;;;;;;;;;24.61;99.71;99011.41;5057874;28;20434;-47
2022/10/13 11:32:54;;;;;;;;;;;;;;;25.27;97.96;99009.81;5060736;28;19978;-46
2022/10/13 11:35:30;;;;;;;;;;;;;;;24.69;97.04;99009.88;5060983;28;19920;-50
2022/10/13 11:38:03;;;;;;;;;;;;;;;25.06;96.80;98999.44;5043749;28;19920;-48
2022/10/13 11:40:38;;;;;;;;;;;;;;;23.58;99.81;99016.91;5061007;28;19931;-47
2022/10/13 11:43:22;;;;;;;;;;;;;;;24.71;99.66;99002.66;5060547;28;19917;-47
2022/10/13 11:45:56;;;;;;;;;;;;;;;25.18;96.56;98992.19;5059049;28;19959;-46
2022/10/13 11:48:40;;;;;;;;;;;;;;;25.37;97.33;98991.34;5042709;28;19995;-46
2022/10/13 11:51:11;;;;;;;;;;;;;;;24.94;93.83;98976.84;5061199;28;19993;-47
2022/10/13 11:53:39;;;;;;;;;;;;;;;24.91;95.70;98974.50;5042748;28;20063;-46
2022/10/13 11:56:16;;;;;;;;;;;;;;;25.05;95.95;98977.53;5060930;28;20027;-47
2022/10/13 11:58:41;;;;;;;;;;;;;;;24.52;94.84;98978.00;5042412;28;19922;-46
2022/10/13 12:01:11;;;;;;;;;;;;;;;24.36;92.66;98965.38;5060980;28;20808;-46
2022/10/13 12:03:40;;;;;;;;;;;;;;;25.13;94.13;98968.06;5059586;28;19967;-48
2022/10/13 12:06:06;;;;;;;;;;;;;;;24.46;96.10;98965.34;5042522;28;19916;-46
2022/10/13 12:08:35;;;;;;;;;;;;;;;25.21;93.98;98955.06;5042682;28;19956;-46
2022/10/13 12:11:03;;;;;;;;;;;;;;;24.15;97.04;98964.63;5060813;28;19960;-49
2022/10/13 12:13:29;;;;;;;;;;;;;;;24.27;98.10;98954.81;5042351;28;19982;-47
2022/10/13 12:15:58;;;;;;;;;;;;;;;25.51;94.17;98950.50;5060562;28;19920;-47
2022/10/13 12:18:28;;;;;;;;;;;;;;;24.30;93.19;98959.81;5060117;28;20389;-47
2022/10/13 12:20:55;;;;;;;;;;;;;;;24.63;93.68;98951.53;5060920;28;20763;-46
2022/10/13 12:23:20;;;;;;;;;;;;;;;24.31;97.03;98969.34;5059915;28;20376;-47
2022/10/13 12:25:46;;;;;;;;;;;;;;;23.58;96.66;98964.31;5060242;28;19966;-46
2022/10/13 12:28:16;;;;;;;;;;;;;;;23.54;100.00;98968.19;5042476;28;20411;-46
2022/10/13 12:30:41;;;;;;;;;;;;;;;23.87;98.26;98953.09;5039830;28;19956;-47
2022/10/13 12:33:25;;;;;;;;;;;;;;;24.94;93.54;98947.88;5059119;28;19944;-47
2022/10/13 12:35:50;;;;;;;;;;;;;;;24.38;95.60;98946.78;5058637;28;20003;-46
2022/10/13 12:38:18;;;;;;;;;;;;;;;24.54;94.36;98939.22;5040983;28;19923;-47
2022/10/13 12:40:45;;;;;;;;;;;;;;;24.84;92.82;98937.38;5058572;28;20472;-46